Startpagina
METAR-TAF:

METAR-TAF

Vliegvelden :

Internationale luchthaven Kopenhagen Kastrup

Kopenhagen, Denemarken

breedte: 55-37N, lengte: 012-39E, hoogte: 5 m

Actueel weer

Dit bericht is 27 minuten geleden gemaakt, om 17:20 UTC
Wind 4 kt uit het zuidzuidoosten
Temperatuur 15°C
Vochtigheid 77%
Druk 1013 hPa
Zicht 10 km of meer
geen wolken onder 1500 m en geen cumulonimbus

METAR: EKCH 251720Z 15004KT CAVOK 15/11 Q1013 NOSIG

Tijdstip: 19:47 (17:47 UTC)

Verwachting

Dit bericht is 41 minuten geleden gemaakt, om 17:06 UTC
Verwachting geldig van 25 om 18 UTC tot 26 om 18 UTC
Wind 8 kt uit het zuidzuidoosten
Zicht 10 km of meer
Weinig wolken op 3000 ft
Wijzigt naar
van 26 om 00 UTC tot 26 om 03 UTC
Wind 8 kt uit het oostnoordoosten

TAF: EKCH 251706Z 2518/2618 16008KT 9999 FEW030 BECMG 2600/2603 06008KT

Waarnemingen en weersverwachtingen van meer dan 4000 vliegvelden (METAR en TAF).

De beschikbare stations zijn de gele en rode punten op de kaart.

Ga met uw muis naar het station om de naam te zien.

Klik dan om waarnemingen en weersverwachtingen te zien.

kaart wijzigen: klik op de groene knoppen met een zwart kruis om in te zoomen, op de groene knop met een streepje om uit te zoomen of op de groene pijlen voor aangrenzende kaarten.


METAR-TAF: